createdAt,value
2022-09-15T00:02:18.444Z,89.08
2022-09-15T00:04:54.293Z,89.08
2022-09-15T00:07:31.505Z,89.05
2022-09-15T00:10:10.390Z,89.03
2022-09-15T00:12:46.235Z,89.00
2022-09-15T00:15:22.969Z,89.01
2022-09-15T00:17:58.965Z,89.04
2022-09-15T00:20:34.773Z,89.05
2022-09-15T00:23:11.246Z,89.10
2022-09-15T00:25:53.483Z,89.10
2022-09-15T00:28:29.703Z,89.10
2022-09-15T00:31:10.912Z,89.12
2022-09-15T00:33:49.607Z,89.17
2022-09-15T00:36:27.412Z,89.21
2022-09-15T00:39:03.604Z,89.21
2022-09-15T00:41:41.661Z,89.24
2022-09-15T00:45:05.292Z,89.29
2022-09-15T00:47:43.128Z,89.27
2022-09-15T00:50:23.612Z,89.25
2022-09-15T00:53:04.922Z,89.24
2022-09-15T00:55:47.541Z,89.25
2022-09-15T00:58:30.429Z,89.28
2022-09-15T01:01:09.603Z,89.21
2022-09-15T01:03:46.578Z,89.26
2022-09-15T01:06:32.876Z,89.25
2022-09-15T01:09:16.706Z,89.29
2022-09-15T01:11:52.872Z,89.30
2022-09-15T01:14:28.896Z,89.30
2022-09-15T01:17:22.670Z,89.30
2022-09-15T01:21:09.769Z,89.31
2022-09-15T01:24:36.897Z,89.32
2022-09-15T01:27:42.665Z,89.38
2022-09-15T01:30:23.098Z,89.43
2022-09-15T01:33:32.099Z,89.41
2022-09-15T01:36:19.414Z,89.40
2022-09-15T01:39:05.300Z,89.47
2022-09-15T01:41:49.406Z,89.48
2022-09-15T01:44:33.219Z,89.47
2022-09-15T01:47:14.772Z,89.45
2022-09-15T01:49:57.731Z,89.46
2022-09-15T01:52:35.299Z,89.46
2022-09-15T01:55:22.507Z,89.40
2022-09-15T01:58:00.388Z,89.40
2022-09-15T02:00:42.946Z,89.41
2022-09-15T02:03:29.987Z,89.39
2022-09-15T02:06:15.908Z,89.37
2022-09-15T02:09:02.974Z,89.41
2022-09-15T02:11:48.065Z,89.43
2022-09-15T02:14:39.183Z,89.55
2022-09-15T02:17:20.686Z,89.66
2022-09-15T02:20:11.509Z,89.71
2022-09-15T02:22:54.715Z,89.80
2022-09-15T02:25:37.783Z,89.80
2022-09-15T02:28:18.420Z,89.80
2022-09-15T02:30:58.805Z,89.81
2022-09-15T02:33:41.251Z,89.80
2022-09-15T02:36:20.876Z,89.80
2022-09-15T02:39:06.092Z,89.77
2022-09-15T02:41:43.096Z,89.73
2022-09-15T02:44:19.216Z,89.70
2022-09-15T02:46:55.653Z,89.66
2022-09-15T02:49:31.762Z,89.60
2022-09-15T02:52:08.458Z,89.61
2022-09-15T02:54:44.260Z,89.60
2022-09-15T02:57:21.153Z,89.54
2022-09-15T03:00:16.125Z,89.47
2022-09-15T03:02:55.319Z,89.42
2022-09-15T03:05:32.825Z,89.32
2022-09-15T03:08:09.065Z,89.37
2022-09-15T03:10:45.362Z,89.30
2022-09-15T03:13:21.380Z,89.32
2022-09-15T03:15:57.155Z,89.34
2022-09-15T03:18:33.213Z,89.38
2022-09-15T03:21:13.204Z,89.40
2022-09-15T03:23:50.283Z,89.40
2022-09-15T03:26:26.181Z,89.40
2022-09-15T03:29:02.452Z,89.43
2022-09-15T03:31:38.293Z,89.41
2022-09-15T03:34:14.206Z,89.43
2022-09-15T03:36:49.939Z,89.41
2022-09-15T03:39:25.944Z,89.50
2022-09-15T03:42:01.724Z,89.51
2022-09-15T03:44:37.782Z,89.58
2022-09-15T03:47:13.768Z,89.59
2022-09-15T03:49:49.644Z,89.60
2022-09-15T03:52:26.288Z,89.60
2022-09-15T03:55:02.124Z,89.62
2022-09-15T03:57:38.076Z,89.60
2022-09-15T04:00:17.664Z,89.61
2022-09-15T04:02:53.595Z,89.58
2022-09-15T04:05:29.543Z,89.58
2022-09-15T04:08:05.871Z,89.62
2022-09-15T04:10:44.113Z,89.61
2022-09-15T04:13:20.060Z,89.62
2022-09-15T04:16:04.284Z,89.60
2022-09-15T04:18:40.767Z,89.61
2022-09-15T04:21:20.386Z,89.78
2022-09-15T04:23:56.660Z,89.92
2022-09-15T04:26:36.694Z,90.03
2022-09-15T04:29:18.899Z,90.11
2022-09-15T04:31:54.966Z,90.20
2022-09-15T04:34:30.865Z,90.20
2022-09-15T04:37:07.589Z,90.22
2022-09-15T04:39:43.573Z,90.17
2022-09-15T04:42:21.034Z,90.06
2022-09-15T04:44:56.803Z,90.01
2022-09-15T04:47:32.797Z,89.89
2022-09-15T04:50:10.125Z,89.80
2022-09-15T04:52:46.017Z,89.84
2022-09-15T04:55:21.980Z,89.81
2022-09-15T04:57:58.825Z,89.80
2022-09-15T05:00:43.269Z,89.78
2022-09-15T05:03:19.656Z,89.76
2022-09-15T05:05:55.628Z,89.71
2022-09-15T05:08:31.426Z,89.67
2022-09-15T05:11:10.306Z,89.62
2022-09-15T05:13:46.721Z,89.59
2022-09-15T05:16:26.668Z,89.57
2022-09-15T05:19:05.780Z,89.51
2022-09-15T05:21:41.852Z,89.46
2022-09-15T05:24:18.324Z,89.40
2022-09-15T05:26:54.070Z,89.31
2022-09-15T05:29:30.214Z,89.24
2022-09-15T05:32:06.821Z,89.18
2022-09-15T05:34:42.819Z,89.03
2022-09-15T05:37:19.879Z,89.00
2022-09-15T05:39:59.603Z,88.86
2022-09-15T05:42:36.930Z,88.72
2022-09-15T05:45:14.349Z,88.53
2022-09-15T05:47:50.715Z,88.51
2022-09-15T05:50:26.722Z,88.38
2022-09-15T05:53:02.706Z,88.20
2022-09-15T05:55:42.519Z,88.10
2022-09-15T05:58:18.511Z,88.02
2022-09-15T06:00:55.153Z,87.91
2022-09-15T06:03:31.359Z,87.81
2022-09-15T06:06:09.609Z,87.81
2022-09-15T06:08:51.853Z,87.80
2022-09-15T06:11:33.792Z,87.83
2022-09-15T06:14:09.816Z,87.73
2022-09-15T06:16:45.958Z,87.64
2022-09-15T06:19:22.118Z,87.61
2022-09-15T06:21:58.062Z,87.59
2022-09-15T06:24:33.970Z,87.50
2022-09-15T06:27:10.282Z,87.36
2022-09-15T06:29:46.100Z,87.28
2022-09-15T06:32:22.110Z,87.19
2022-09-15T06:34:58.067Z,87.12
2022-09-15T06:37:34.130Z,87.10
2022-09-15T06:40:13.326Z,87.08
2022-09-15T06:42:49.416Z,87.14
2022-09-15T06:45:25.229Z,87.14
2022-09-15T06:48:22.868Z,87.08
2022-09-15T06:51:00.695Z,87.01
2022-09-15T06:53:39.159Z,86.94
2022-09-15T06:56:18.216Z,86.79
2022-09-15T06:58:54.625Z,86.80
2022-09-15T07:01:39.998Z,86.83
2022-09-15T07:04:16.148Z,86.75
2022-09-15T07:06:52.347Z,86.68
2022-09-15T07:09:28.381Z,86.68
2022-09-15T07:12:04.768Z,86.77
2022-09-15T07:14:41.086Z,86.78
2022-09-15T07:17:17.241Z,86.90
2022-09-15T07:19:53.292Z,87.01
2022-09-15T07:22:30.364Z,86.49
2022-09-15T07:25:07.449Z,85.27
2022-09-15T07:27:43.864Z,84.77
2022-09-15T07:30:20.557Z,84.61
2022-09-15T07:32:56.434Z,84.54
2022-09-15T07:35:32.692Z,84.72
2022-09-15T07:38:08.478Z,84.91
2022-09-15T07:40:46.209Z,85.08
2022-09-15T07:43:22.165Z,85.25
2022-09-15T07:46:02.194Z,85.14
2022-09-15T07:48:38.368Z,85.40
2022-09-15T07:51:15.322Z,85.75
2022-09-15T07:53:52.802Z,86.01
2022-09-15T07:56:28.845Z,86.35
2022-09-15T07:59:04.657Z,86.65
2022-09-15T08:01:41.590Z,86.91
2022-09-15T08:04:18.021Z,87.06
2022-09-15T08:06:53.841Z,87.13
2022-09-15T08:09:30.132Z,87.25
2022-09-15T08:12:08.120Z,87.41
2022-09-15T08:14:44.081Z,87.43
2022-09-15T08:17:20.142Z,87.46
2022-09-15T08:19:55.925Z,87.52
2022-09-15T08:22:31.849Z,87.57
2022-09-15T08:25:09.362Z,87.57
2022-09-15T08:27:45.910Z,87.56
2022-09-15T08:30:22.702Z,87.42
2022-09-15T08:32:58.744Z,87.44
2022-09-15T08:35:37.054Z,87.44
2022-09-15T08:38:13.553Z,87.31
2022-09-15T08:40:50.506Z,87.45
2022-09-15T08:43:38.228Z,87.26
2022-09-15T08:46:22.529Z,86.90
2022-09-15T08:49:09.719Z,86.41
2022-09-15T08:51:52.016Z,86.35
2022-09-15T08:54:31.543Z,86.22
2022-09-15T08:57:12.297Z,86.04
2022-09-15T08:59:48.252Z,86.14
2022-09-15T09:03:21.168Z,85.90
2022-09-15T09:06:09.444Z,85.45
2022-09-15T09:09:15.276Z,84.89
2022-09-15T09:12:32.425Z,83.45
2022-09-15T09:15:29.562Z,82.83
2022-09-15T09:18:50.311Z,82.70
2022-09-15T09:21:32.507Z,82.08
2022-09-15T09:24:16.456Z,81.60
2022-09-15T09:26:56.503Z,81.50
2022-09-15T09:29:40.593Z,81.09
2022-09-15T09:32:24.797Z,81.13
2022-09-15T09:35:14.646Z,80.75
2022-09-15T09:37:52.391Z,80.17
2022-09-15T09:40:30.971Z,80.68
2022-09-15T09:43:07.634Z,80.74
2022-09-15T09:45:44.140Z,80.53
2022-09-15T09:48:26.332Z,80.77
2022-09-15T09:51:02.882Z,80.24
2022-09-15T09:53:39.134Z,79.80
2022-09-15T09:56:27.957Z,79.83
2022-09-15T09:59:05.145Z,78.49
2022-09-15T10:01:41.521Z,78.47
2022-09-15T10:04:23.885Z,78.23
2022-09-15T10:07:00.638Z,77.71
2022-09-15T10:09:37.905Z,77.12
2022-09-15T10:12:27.705Z,77.20
2022-09-15T10:15:09.744Z,76.62
2022-09-15T10:17:50.343Z,77.17
2022-09-15T10:20:40.064Z,77.76
2022-09-15T10:23:32.164Z,78.01
2022-09-15T10:26:34.836Z,77.96
2022-09-15T10:29:27.239Z,77.12
2022-09-15T10:32:26.082Z,76.86
2022-09-15T10:35:23.941Z,77.22
2022-09-15T10:38:15.886Z,77.18
2022-09-15T10:41:03.257Z,77.07
2022-09-15T10:43:58.204Z,76.63
2022-09-15T10:46:47.245Z,76.73
2022-09-15T10:49:49.501Z,76.69
2022-09-15T10:52:45.185Z,76.46
2022-09-15T10:55:52.940Z,76.47
2022-09-15T10:59:01.031Z,76.49
2022-09-15T11:02:21.561Z,76.38
2022-09-15T11:05:23.692Z,75.73
2022-09-15T11:08:27.190Z,76.04
2022-09-15T11:11:14.966Z,76.11
2022-09-15T11:14:23.321Z,76.73
2022-09-15T11:17:24.545Z,76.43
2022-09-15T11:20:41.297Z,76.51
2022-09-15T11:23:27.098Z,76.10
2022-09-15T11:26:11.182Z,75.09
2022-09-15T11:28:53.823Z,74.74
2022-09-15T11:31:36.233Z,74.96
2022-09-15T11:34:24.201Z,74.49
2022-09-15T11:37:09.258Z,73.98
2022-09-15T11:39:54.669Z,74.13
2022-09-15T11:42:41.291Z,74.29
2022-09-15T11:45:27.913Z,74.26
2022-09-15T11:48:16.055Z,74.32
2022-09-15T11:50:58.220Z,74.58
2022-09-15T11:53:48.630Z,73.95
2022-09-15T11:56:34.885Z,73.19
2022-09-15T11:59:27.176Z,73.40
2022-09-15T12:02:20.597Z,72.71
2022-09-15T12:05:15.024Z,72.97
2022-09-15T12:07:59.493Z,72.44
2022-09-15T12:10:42.349Z,72.34
2022-09-15T12:13:22.722Z,72.10
2022-09-15T12:16:02.188Z,71.71
2022-09-15T12:18:46.908Z,71.10
2022-09-15T12:21:35.336Z,70.68
2022-09-15T12:24:25.038Z,70.32
2022-09-15T12:27:03.763Z,70.58
2022-09-15T12:29:50.861Z,70.67
2022-09-15T12:32:30.713Z,70.83
2022-09-15T12:35:34.505Z,70.97
2022-09-15T12:38:17.172Z,70.71
2022-09-15T12:41:02.569Z,70.52
2022-09-15T12:43:38.530Z,70.69
2022-09-15T12:46:22.102Z,70.60
2022-09-15T12:49:03.758Z,71.22
2022-09-15T12:51:39.782Z,71.38
2022-09-15T12:54:28.324Z,71.85
2022-09-15T12:57:06.168Z,72.29
2022-09-15T12:59:42.041Z,72.38
2022-09-15T13:02:51.366Z,72.26
2022-09-15T13:06:24.013Z,72.26
2022-09-15T13:09:29.691Z,72.51
2022-09-15T13:12:08.971Z,73.02
2022-09-15T13:14:50.184Z,72.84
2022-09-15T13:17:29.545Z,73.47
2022-09-15T13:20:23.146Z,73.70
2022-09-15T13:23:00.747Z,73.99
2022-09-15T13:25:38.717Z,74.02
2022-09-15T13:28:19.004Z,74.30
2022-09-15T13:31:16.909Z,74.14
2022-09-15T13:38:30.902Z,74.68
2022-09-15T13:41:52.441Z,75.13
2022-09-15T13:45:26.410Z,74.99
2022-09-15T13:48:42.563Z,75.20
2022-09-15T13:51:28.774Z,75.18
2022-09-15T13:54:15.923Z,75.61
2022-09-15T13:56:53.319Z,75.74
2022-09-15T13:59:34.857Z,76.12
2022-09-15T14:02:13.170Z,76.41
2022-09-15T14:04:54.029Z,76.60
2022-09-15T14:07:32.674Z,76.98
2022-09-15T14:10:19.237Z,77.05
2022-09-15T14:12:59.972Z,77.01
2022-09-15T14:15:36.438Z,76.34
2022-09-15T14:18:24.266Z,76.33
2022-09-15T14:21:19.608Z,76.08
2022-09-15T14:23:58.893Z,75.85
2022-09-15T14:26:38.158Z,75.76
2022-09-15T14:29:24.542Z,75.86
2022-09-15T14:32:07.445Z,75.73
2022-09-15T14:34:44.715Z,75.94
2022-09-15T14:37:27.629Z,76.22
2022-09-15T14:40:21.108Z,76.74
2022-09-15T14:42:58.038Z,76.77
2022-09-15T14:45:57.546Z,76.89
2022-09-15T14:48:34.312Z,77.15
2022-09-15T14:51:22.763Z,77.08
2022-09-15T14:54:03.193Z,77.18
2022-09-15T14:56:44.147Z,77.53
2022-09-15T14:59:28.734Z,77.68
2022-09-15T15:02:27.235Z,77.75
2022-09-15T15:05:10.984Z,77.80
2022-09-15T15:07:47.520Z,77.96
2022-09-15T15:10:35.639Z,78.06
2022-09-15T15:13:18.262Z,78.26
2022-09-15T15:15:54.549Z,78.34
2022-09-15T15:18:43.732Z,78.41
2022-09-15T15:21:44.521Z,78.34
2022-09-15T15:24:27.051Z,78.53
2022-09-15T15:27:43.807Z,78.58
2022-09-15T15:30:50.926Z,78.55
2022-09-15T15:33:31.123Z,78.75
2022-09-15T15:36:11.918Z,79.12
2022-09-15T15:38:56.911Z,79.40
2022-09-15T15:41:37.913Z,79.60
2022-09-15T15:44:32.144Z,79.77
2022-09-15T15:47:30.403Z,79.93
2022-09-15T15:50:16.429Z,80.13
2022-09-15T15:52:53.798Z,80.42
2022-09-15T15:55:40.655Z,80.67
2022-09-15T15:58:18.862Z,80.87
2022-09-15T16:00:57.612Z,81.06
2022-09-15T16:03:33.793Z,81.21
2022-09-15T16:06:12.646Z,81.33
2022-09-15T16:08:49.402Z,81.50
2022-09-15T16:11:25.258Z,81.59
2022-09-15T16:14:01.413Z,82.10
2022-09-15T16:16:41.005Z,82.53
2022-09-15T16:19:17.349Z,82.80
2022-09-15T16:21:55.638Z,82.97
2022-09-15T16:24:32.617Z,83.25
2022-09-15T16:27:14.952Z,83.55
2022-09-15T16:29:51.256Z,83.79
2022-09-15T16:32:28.783Z,83.94
2022-09-15T16:35:11.273Z,84.05
2022-09-15T16:37:47.110Z,84.22
2022-09-15T16:40:24.218Z,84.50
2022-09-15T16:43:02.486Z,84.64
2022-09-15T16:45:43.130Z,84.82
2022-09-15T16:48:20.069Z,85.17
2022-09-15T16:51:20.523Z,85.37
2022-09-15T16:53:52.417Z,85.61
2022-09-15T16:56:29.129Z,85.66
2022-09-15T16:59:05.482Z,85.71
2022-09-15T17:01:41.741Z,85.81
2022-09-15T17:04:20.197Z,85.81
2022-09-15T17:06:56.283Z,85.79
2022-09-15T17:09:32.180Z,85.93
2022-09-15T17:14:49.898Z,86.10
2022-09-15T17:17:31.615Z,86.17
2022-09-15T17:20:07.172Z,86.41
2022-09-15T17:22:43.059Z,86.59
2022-09-15T17:25:35.015Z,86.73
2022-09-15T17:28:11.032Z,87.18
2022-09-15T17:30:46.916Z,87.29
2022-09-15T17:33:24.648Z,87.05
2022-09-15T17:36:02.755Z,86.88
2022-09-15T17:38:41.195Z,86.70
2022-09-15T17:41:22.423Z,86.57
2022-09-15T17:43:59.592Z,86.37
2022-09-15T17:46:35.668Z,86.40
2022-09-15T17:49:12.029Z,86.54
2022-09-15T17:51:48.038Z,86.36
2022-09-15T17:54:24.229Z,86.16
2022-09-15T17:57:00.130Z,86.15
2022-09-15T17:59:36.060Z,86.18
2022-09-15T18:02:21.874Z,86.25
2022-09-15T18:04:58.437Z,86.22
2022-09-15T18:07:35.027Z,86.16
2022-09-15T18:10:12.914Z,86.21
2022-09-15T18:12:52.236Z,86.16
2022-09-15T18:15:35.335Z,86.22
2022-09-15T18:18:18.791Z,86.19
2022-09-15T18:20:58.002Z,86.13
2022-09-15T18:23:33.852Z,86.20
2022-09-15T18:26:09.959Z,86.17
2022-09-15T18:28:45.853Z,86.12
2022-09-15T18:31:22.132Z,86.08
2022-09-15T18:33:58.393Z,85.91
2022-09-15T18:36:34.580Z,85.79
2022-09-15T18:39:12.012Z,85.55
2022-09-15T18:44:30.497Z,85.43
2022-09-15T18:47:06.517Z,85.34
2022-09-15T18:49:42.517Z,85.31
2022-09-15T18:52:18.677Z,85.18
2022-09-15T18:54:54.847Z,85.07
2022-09-15T18:57:36.970Z,85.00
2022-09-15T19:00:19.882Z,84.93
2022-09-15T19:03:01.115Z,84.94
2022-09-15T19:05:38.651Z,85.04
2022-09-15T19:08:15.728Z,85.05
2022-09-15T19:11:02.069Z,85.23
2022-09-15T19:13:37.987Z,85.36
2022-09-15T19:16:14.504Z,85.47
2022-09-15T19:18:53.841Z,85.40
2022-09-15T19:21:30.057Z,85.29
2022-09-15T19:24:06.468Z,85.29
2022-09-15T19:26:42.584Z,85.30
2022-09-15T19:29:19.005Z,85.27
2022-09-15T19:31:54.906Z,85.37
2022-09-15T19:34:30.731Z,85.47
2022-09-15T19:37:11.376Z,85.75
2022-09-15T19:39:50.453Z,86.08
2022-09-15T19:42:26.600Z,86.28
2022-09-15T19:45:02.865Z,86.42
2022-09-15T19:47:39.363Z,86.68
2022-09-15T19:50:18.132Z,86.84
2022-09-15T19:52:58.832Z,86.94
2022-09-15T19:55:35.790Z,86.99
2022-09-15T19:58:11.769Z,87.02
2022-09-15T20:00:52.505Z,87.21
2022-09-15T20:08:10.971Z,87.33
2022-09-15T20:10:49.064Z,87.54
2022-09-15T20:13:26.490Z,87.52
2022-09-15T20:16:07.554Z,87.55
2022-09-15T20:18:47.412Z,87.74
2022-09-15T20:21:48.650Z,87.83
2022-09-15T20:24:27.310Z,87.60
2022-09-15T20:27:05.581Z,87.61
2022-09-15T20:29:44.368Z,87.59
2022-09-15T20:32:27.481Z,87.64
2022-09-15T20:35:05.812Z,87.74
2022-09-15T20:37:43.251Z,87.92
2022-09-15T20:40:21.330Z,87.90
2022-09-15T20:42:58.757Z,87.80
2022-09-15T20:45:39.966Z,87.80
2022-09-15T20:48:20.082Z,87.82
2022-09-15T20:51:07.204Z,87.79
2022-09-15T20:53:47.829Z,87.87
2022-09-15T20:56:26.892Z,87.83
2022-09-15T20:59:06.396Z,87.82
2022-09-15T21:01:45.333Z,87.88
2022-09-15T21:04:23.024Z,87.93
2022-09-15T21:06:59.682Z,88.02
2022-09-15T21:09:36.649Z,88.08
2022-09-15T21:12:13.918Z,88.26
2022-09-15T21:14:50.577Z,88.36
2022-09-15T21:17:29.183Z,88.32
2022-09-15T21:20:06.522Z,88.34
2022-09-15T21:22:43.328Z,88.39
2022-09-15T21:25:20.001Z,88.40
2022-09-15T21:27:56.352Z,88.39
2022-09-15T21:30:32.902Z,88.34
2022-09-15T21:33:09.462Z,88.33
2022-09-15T21:35:47.535Z,88.24
2022-09-15T21:38:24.205Z,88.31
2022-09-15T21:41:00.740Z,88.23
2022-09-15T21:43:40.288Z,88.21
2022-09-15T21:46:20.112Z,88.21
2022-09-15T21:48:59.092Z,88.27
2022-09-15T21:51:36.394Z,88.26
2022-09-15T21:54:13.837Z,88.33
2022-09-15T21:56:50.620Z,88.49
2022-09-15T21:59:27.503Z,88.51
2022-09-15T22:02:04.030Z,88.58
2022-09-15T22:04:41.093Z,88.46
2022-09-15T22:07:19.551Z,88.44
2022-09-15T22:09:56.347Z,88.44
2022-09-15T22:12:33.042Z,88.49
2022-09-15T22:15:12.411Z,88.53
2022-09-15T22:17:49.050Z,88.55
2022-09-15T22:20:25.967Z,88.51
2022-09-15T22:23:04.773Z,88.56
2022-09-15T22:25:41.239Z,88.59
2022-09-15T22:28:17.615Z,88.59
2022-09-15T22:30:57.378Z,88.55
2022-09-15T22:33:34.943Z,88.63
2022-09-15T22:36:13.998Z,88.62
2022-09-15T22:38:50.772Z,88.74
2022-09-15T22:41:27.488Z,88.58
2022-09-15T22:44:04.770Z,88.51
2022-09-15T22:46:41.377Z,88.43
2022-09-15T22:49:18.002Z,88.38
2022-09-15T22:51:54.632Z,88.32
2022-09-15T22:54:31.810Z,88.24
2022-09-15T22:57:08.620Z,88.14
2022-09-15T22:59:45.003Z,88.05
2022-09-15T23:02:20.881Z,88.01
2022-09-15T23:04:56.647Z,87.91
2022-09-15T23:07:32.773Z,87.96
2022-09-15T23:10:10.003Z,87.95
2022-09-15T23:12:45.705Z,87.99
2022-09-15T23:15:21.496Z,87.93
2022-09-15T23:17:56.901Z,87.94
2022-09-15T23:20:33.781Z,87.92
2022-09-15T23:23:10.723Z,87.89
2022-09-15T23:25:47.896Z,87.91
2022-09-15T23:28:24.634Z,87.97
2022-09-15T23:31:03.049Z,87.91
2022-09-15T23:33:39.382Z,87.93
2022-09-15T23:36:19.682Z,87.94
2022-09-15T23:38:56.009Z,87.94
2022-09-15T23:41:32.077Z,87.98
2022-09-15T23:44:09.060Z,88.00
2022-09-15T23:46:45.222Z,88.16
2022-09-15T23:49:21.604Z,88.34
2022-09-15T23:51:57.845Z,88.31
2022-09-15T23:54:34.112Z,88.36
2022-09-15T23:57:11.912Z,88.40
2022-09-15T23:59:48.023Z,88.40
